Latest Coastal Weather Observations for East Sale

IDV60701

Issued at 1:45 pm EST Friday 1 August 2014 (issued every 10 minutes, with the page automatically refreshed every 10 minutes)

About coastal observations | Map of coastal stations | Coastal observations for VIC | Marine services | Other Formats
Station Details ID: 085072 Name: EAST SALE AIRPORT Lat: -38.12 Lon: 147.13 Height: 4.6 m
Data from the previous 72 hours. | See also: Recent months at East Sale
Date/Time
EST
Temp

°C
Wind Pressure Rain
since 9am
mm
Weather Cloud Vis
km
Sea
Height
m
Swell
Dir
 
Speed
knots
Gust
knots
hPa Trend Height
m
Period
s
Dir
01/01:30pm 11.8 WNW 24 32 1003.4 - 0.0 - Partly cloudy 10 - - - -
01/01:06pm 11.6 WNW 26 39 1003.1 - 0.0 - Partly cloudy 10 - - - -
01/01:00pm 11.7 WNW 24 32 1003.1 - 0.0 - Partly cloudy 10 - - - -
01/12:43pm 11.3 WNW 22 33 1003.0 - 0.0 - Partly cloudy 10 - - - -
01/12:30pm 11.6 WNW 22 28 1002.9 - 0.0 - Partly cloudy 10 - - - -
01/12:00pm 11.3 WNW 27 37 1002.5 - 0.0 - Mostly clear 10 - - - -
01/11:40am 10.9 WNW 28 38 1001.9 - 0.0 - Mostly clear 10 - - - -
01/11:30am 11.0 NW 28 37 1002.1 - 0.0 - Mostly clear 10 - - - -
01/11:00am 10.9 NW 27 35 1002.2 - 0.0 - Mostly clear 10 - - - -
01/10:30am 10.4 NW 23 29 1002.5 - 0.0 - Mostly clear 10 - - - -
01/10:00am 10.3 NW 19 26 1002.7 - 0.0 - Mostly clear 10 - - - -
01/09:30am 9.8 NW 19 26 1002.4 - 0.0 - Mostly clear 10 - - - -
01/09:00am 9.0 NW 21 30 1001.7 F 5.6 Fine Mostly clear 30 - - - -
01/08:30am 7.9 NW 13 19 1001.7 - 5.6 - Mostly clear 10 - - - -
01/08:00am 7.2 NW 13 16 1001.8 - 5.6 - Mostly clear 10 - - - -
01/07:30am 6.6 NW 16 22 1001.5 - 5.6 - Mostly clear 10 - - - -
01/07:00am 6.2 NW 13 17 1001.2 - 5.6 - - 10 - - - -
01/06:30am 5.9 NNW 10 14 1001.1 - 5.6 - - 10 - - - -
01/06:00am 6.4 NW 13 20 1001.2 - 5.6 - - 10 - - - -
01/05:30am 6.4 NW 15 20 1001.0 - 5.6 - - 10 - - - -
01/05:00am 6.0 NW 13 15 1001.1 - 5.6 - - 10 - - - -
01/04:30am 5.0 NW 9 12 1001.3 - 5.6 - - 10 - - - -
01/04:00am 5.5 WNW 5 7 1001.8 - 5.6 - - 10 - - - -
01/03:30am 5.7 NW 15 19 1001.4 - 5.6 - - 10 - - - -
01/03:00am 5.9 NW 13 15 1001.3 - 5.6 - - 10 - - - -
01/02:30am 5.8 NW 12 14 1001.3 - 5.6 - - 10 - - - -
01/02:00am 6.7 NW 12 15 1001.4 - 5.6 - Partly cloudy 10 - - - -
01/01:30am 6.5 NW 8 10 1001.8 - 5.6 - Cloudy 10 - - - -
01/01:00am 6.9 NW 7 9 1001.6 - 5.6 - Cloudy 10 - - - -
01/12:30am 7.3 WNW 8 10 1001.6 - 5.6 - Cloudy 9 - - - -
01/12:00am 7.4 WNW 6 8 1001.3 - 5.6 - Cloudy 10 - - - -
 
Date/Time
EST
Temp

°C
Wind Pressure Rain
since 9am
mm
Weather Cloud Vis
km
Sea
Height
m
Swell
Dir
 
Speed
knots
Gust
knots
hPa Trend Height
m
Period
s
Dir
31/11:30pm 7.4 NW 8 9 1001.3 - 5.6 - Cloudy 10 - - - -
31/11:00pm 8.0 WNW 17 22 1001.2 - 5.6 - Cloudy 10 - - - -
31/10:30pm 7.2 W 15 22 1001.3 - 5.6 - Partly cloudy 10 - - - -
31/10:00pm 6.5 WNW 15 22 1001.6 - 5.6 - Partly cloudy 10 - - - -
31/09:30pm 6.1 W 15 20 1001.9 - 5.4 - Cloudy 10 - - - -
31/09:00pm 5.7 W 15 24 1001.1 - 5.0 - Cloudy 10 - - - -
31/08:58pm 5.7 W 15 24 1001.0 - 5.0 - Partly cloudy 10 - - - -
31/08:30pm 5.7 W 17 24 1000.6 - 4.4 - Cloudy 5 - - - -
31/08:00pm 6.0 WSW 22 33 999.4 - 2.8 - Cloudy 4 - - - -
31/07:40pm 6.2 WSW 23 35 999.1 - 1.6 - Partly cloudy 6 - - - -
31/07:30pm 6.3 WSW 23 40 998.6 - 1.2 - Partly cloudy 7 - - - -
31/07:00pm 6.7 WSW 26 37 998.3 - 0.6 - Partly cloudy 10 - - - -
31/06:30pm 7.2 WSW 25 37 997.5 - 0.4 - Partly cloudy 10 - - - -
31/06:04pm 8.2 WSW 25 43 997.0 - 0.0 - Cloudy 10 - - - -
31/06:01pm 8.3 WSW 23 33 996.9 - 0.0 - Cloudy 10 - - - -
31/06:00pm 8.3 WSW 23 32 997.0 - 0.0 - Mostly cloudy 10 - - - -
31/05:30pm 10.1 WSW 30 42 996.6 - 0.0 - Cloudy 10 - - - -
31/05:00pm 12.9 W 30 42 994.7 - 0.0 - Partly cloudy 10 - - - -
31/04:54pm 13.6 W 31 42 994.2 - 0.0 - Partly cloudy 10 - - - -
31/04:51pm 13.9 W 35 42 994.0 - 0.0 - Partly cloudy 10 - - - -
31/04:49pm 14.7 NW 31 42 993.2 - 0.0 - Partly cloudy 10 - - - -
31/04:30pm 18.8 NW 31 44 992.6 - 0.0 - Mostly clear 10 - - - -
31/04:00pm 18.7 NW 35 47 992.3 - 0.0 - Mostly clear 10 - - - -
31/03:30pm 19.1 NW 34 49 992.5 - 0.0 - Mostly clear 10 - - - -
31/03:16pm 19.0 NW 40 52 992.4 - 0.0 - - 10 - - - -
31/03:13pm 19.3 NW 45 52 992.1 - 0.0 - - 10 - - - -
31/03:00pm 19.2 NW 34 53 992.5 F 0.0 Dust Mostly clear 25 - - - -
31/02:30pm 19.2 NW 39 51 992.6 - 0.0 - Mostly clear 10 - - - -
31/02:00pm - NW 40 55 - - - - Mostly clear 10 - - - -
31/01:30pm - NW 40 53 - - - - Mostly clear 10 - - - -
31/01:00pm 19.6 NW 38 49 994.2 - 0.0 - - 10 - - - -
31/12:32pm - NW 39 55 - - - - Mostly clear 10 - - - -
31/12:30pm 19.6 NW 39 46 994.9 - 0.0 - Mostly clear 10 - - - -
31/12:00pm 19.5 NW 28 40 996.2 - 0.0 - Mostly clear 10 - - - -
31/11:30am 19.2 NW 36 49 996.5 - 0.0 - Mostly clear 10 - - - -
31/11:10am 19.1 NW 34 55 997.1 - 0.0 - Mostly clear 10 - - - -
31/11:00am 19.1 NW 30 42 997.6 - 0.0 - Mostly clear 10 - - - -
31/10:35am 18.8 NW 29 39 998.6 - 0.0 - Mostly clear 10 - - - -
31/10:30am 18.7 NW 31 40 998.6 - 0.0 - Mostly clear 10 - - - -
31/10:00am 18.5 NW 30 43 999.2 - 0.0 - Mostly clear 10 - - - -
31/09:30am 18.1 NW 30 44 999.8 - 0.0 - Mostly clear 10 - - - -
31/09:06am 17.9 NW 26 37 1000.0 - 0.0 - Mostly clear 10 - - - -
31/09:00am 17.8 NW 26 33 1000.0 F 0.0 Fine Mostly clear 20 - - - -
31/08:37am 17.4 NW 27 37 1000.5 - 0.0 - - 10 - - - -
31/08:30am 17.3 NW 28 37 1000.5 - 0.0 - - 10 - - - -
31/08:00am 16.9 NW 27 37 1000.8 - 0.0 - - 10 - - - -
31/07:30am 16.2 NW 25 36 1001.1 - 0.0 - - 10 - - - -
31/07:23am 15.8 NW 22 36 1001.4 - 0.0 - - 10 - - - -
31/07:21am 15.8 NW 22 36 1001.4 - 0.0 - - 10 - - - -
31/07:00am 15.9 NW 22 27 1001.8 - 0.0 - - 10 - - - -
31/06:30am 15.0 NW 17 22 1002.5 - 0.0 - - 10 - - - -
31/06:00am 15.8 NW 21 28 1002.9 - 0.0 - - 10 - - - -
31/05:30am 15.8 NW 19 29 1003.0 - 0.0 - - 10 - - - -
31/05:00am 15.6 NW 19 30 1003.4 - 0.0 - Partly cloudy 10 - - - -
31/04:43am 15.9 NW 20 30 1003.5 - 0.0 - Partly cloudy 10 - - - -
31/04:30am 16.1 NW 18 25 1003.6 - 0.0 - Partly cloudy 10 - - - -
31/04:00am 14.8 NW 17 23 1003.9 - 0.0 - Partly cloudy 10 - - - -
31/03:30am 13.9 NW 11 15 1004.4 - 0.0 - Partly cloudy 10 - - - -
31/03:00am 14.3 NW 7 11 1005.2 - 0.0 - Cloudy 10 - - - -
31/02:30am 15.1 NNW 7 9 1005.9 - 0.0 - Partly cloudy 10 - - - -
31/02:00am 14.4 NNW 7 8 1006.4 - 0.0 - Cloudy 10 - - - -
31/01:30am 14.4 NW 7 9 1006.9 - 0.0 - Cloudy 10 - - - -
31/01:00am 14.5 NW 8 9 1007.4 - 0.0 - Cloudy 10 - - - -
31/12:30am 14.6 NW 10 13 1007.7 - 0.0 - Partly cloudy 10 - - - -
31/12:00am 15.6 NW 11 15 1007.7 - 0.0 - Cloudy 10 - - - -
 
Date/Time
EST
Temp

°C
Wind Pressure Rain
since 9am
mm
Weather Cloud Vis
km
Sea
Height
m
Swell
Dir
 
Speed
knots
Gust
knots
hPa Trend Height
m
Period
s
Dir
30/11:30pm 15.7 NW 10 15 1007.8 - 0.0 - Partly cloudy 10 - - - -
30/11:00pm 15.9 NNW 10 14 1008.0 - 0.0 - Partly cloudy 10 - - - -
30/10:30pm 14.3 NNW 8 10 1008.4 - 0.0 - Cloudy 10 - - - -
30/10:00pm 14.2 N 8 9 1008.5 - 0.0 - Cloudy 10 - - - -
30/09:30pm 13.5 N 7 8 1008.3 - 0.0 - Partly cloudy 10 - - - -
30/09:00pm 13.1 NW 7 8 1008.3 - 0.0 - Partly cloudy 10 - - - -
30/08:30pm 14.7 N 8 9 1008.3 - 0.0 - Cloudy 10 - - - -
30/08:00pm 14.7 N 10 11 1008.8 - 0.0 - Partly cloudy 10 - - - -
30/07:30pm 14.3 N 9 11 1009.1 - 0.0 - - 10 - - - -
30/07:00pm 15.0 N 10 11 1008.8 - 0.0 - - 10 - - - -
30/06:30pm 14.7 N 10 13 1009.0 - 0.0 - - 10 - - - -
30/06:00pm 14.3 N 11 14 1009.0 - 0.0 - Mostly clear 10 - - - -
30/05:30pm 15.3 NNW 12 15 1008.7 - 0.0 - Cloudy 10 - - - -
30/05:00pm 16.2 NNW 13 17 1008.6 - 0.0 - Partly cloudy 10 - - - -
30/04:30pm 17.1 NW 16 20 1008.4 - 0.0 - Partly cloudy 10 - - - -
30/04:00pm 17.8 NW 16 21 1008.0 - 0.0 - Partly cloudy 10 - - - -
30/03:30pm 18.0 NW 17 22 1008.2 - 0.0 - Partly cloudy 10 - - - -
30/03:00pm 18.7 NW 17 23 1008.3 F 0.0 Fine Partly cloudy 30 - - - -
30/02:30pm 19.3 NW 17 22 1008.4 - 0.0 - Partly cloudy 10 - - - -
30/02:00pm 19.1 NW 19 25 1008.6 - 0.0 - Partly cloudy 10 - - - -
30/01:30pm 19.0 WNW 18 23 1008.9 - 0.0 - Partly cloudy 10 - - - -
30/01:05pm 18.5 WNW 21 31 1009.5 - 0.0 - Partly cloudy 10 - - - -
30/01:00pm 18.3 WNW 23 31 1009.5 - 0.0 - Partly cloudy 10 - - - -
30/12:30pm 19.4 NW 23 30 1009.5 - 0.0 - Partly cloudy 10 - - - -
30/12:00pm 18.0 NW 22 30 1010.0 - 0.0 - Mostly cloudy 10 - - - -
30/11:55am 18.0 WNW 23 30 1010.2 - 0.0 - Cloudy 10 - - - -
30/11:30am 17.4 W 13 17 1010.9 - 0.0 - Partly cloudy 10 - - - -
30/11:00am 17.4 W 12 16 1011.0 - 0.0 - Partly cloudy 10 - - - -
30/10:30am 16.8 W 12 14 1011.1 - 0.0 - Partly cloudy 10 - - - -
30/10:00am 16.3 WNW 13 16 1011.0 - 0.0 - - 10 - - - -
30/09:30am 14.5 WNW 12 14 1010.8 - 0.0 - - 10 - - - -
30/09:00am 13.3 W 12 15 1011.0 F 0.0 Fine Mostly clear 30 - - - -
30/08:30am 12.6 WNW 9 11 1011.2 - 0.0 - Partly cloudy 10 - - - -
30/08:00am 12.1 W 12 16 1010.7 - 0.0 - Partly cloudy 10 - - - -
30/07:30am 12.1 W 18 25 1010.6 - 0.0 - Partly cloudy 10 - - - -
30/07:04am 12.7 WSW 19 23 1010.9 - 0.0 - Partly cloudy 10 - - - -
30/07:00am 13.3 NW 7 10 1011.0 - 0.0 - Partly cloudy 10 - - - -
30/06:30am 12.7 N 4 6 1010.4 - 0.0 - Partly cloudy 10 - - - -
30/06:00am 12.5 NW 5 6 1010.3 - 0.0 - Mostly cloudy 10 - - - -
30/05:30am 12.5 WSW 9 11 1009.9 - 0.0 - Partly cloudy 10 - - - -
30/05:00am 11.9 W 8 11 1009.8 - 0.0 - Partly cloudy 10 - - - -
30/04:30am 12.9 WSW 14 18 1009.5 - 0.0 - Partly cloudy 10 - - - -
30/04:00am 12.7 W 9 12 1009.4 - 0.0 - Partly cloudy 10 - - - -
30/03:30am 13.2 W 12 17 1009.1 - 0.0 - - 10 - - - -
30/03:00am 14.0 WSW 15 23 1009.1 - 0.0 - Partly cloudy 10 - - - -
30/02:30am 14.1 WSW 13 19 1009.5 - 0.0 - Partly cloudy 10 - - - -
30/02:00am 15.7 W 12 18 1008.8 - 0.0 - Partly cloudy 10 - - - -
30/01:30am 15.6 W 16 19 1008.6 - 0.0 - Partly cloudy 10 - - - -
30/01:00am 15.7 WNW 14 17 1008.6 - 0.0 - Partly cloudy 10 - - - -
30/12:30am 15.7 WNW 14 18 1008.3 - 0.0 - Partly cloudy 10 - - - -
30/12:00am 15.3 WNW 11 15 1008.4 - 0.0 - Cloudy 10 - - - -
 
Date/Time
EST
Temp

°C
Wind Pressure Rain
since 9am
mm
Weather Cloud Vis
km
Sea
Height
m
Swell
Dir
 
Speed
knots
Gust
knots
hPa Trend Height
m
Period
s
Dir
29/11:30pm 15.0 NW 9 11 1008.2 - 0.0 - Partly cloudy 10 - - - -
29/11:00pm 14.6 NW 9 11 1008.2 - 0.0 - Partly cloudy 10 - - - -
29/10:30pm 14.6 NW 11 14 1007.8 - 0.0 - Partly cloudy 10 - - - -
29/10:00pm 14.5 NW 10 13 1007.7 - 0.0 - - 10 - - - -
29/09:30pm 15.0 NW 13 20 1007.4 - 0.0 - - 10 - - - -
29/09:00pm 15.7 WNW 20 28 1007.0 - 0.0 - Mostly clear 10 - - - -
29/08:30pm 16.1 WNW 22 28 1007.2 - 0.0 - Partly cloudy 10 - - - -
29/08:00pm 15.9 WNW 21 28 1007.0 - 0.0 - - 10 - - - -
29/07:30pm 14.9 NW 19 26 1006.6 - 0.0 - - 10 - - - -
29/07:00pm 15.4 NW 21 27 1006.0 - 0.0 - Partly cloudy 10 - - - -
29/06:38pm 15.3 NW 23 33 1006.0 - 0.0 - - 10 - - - -
29/06:30pm 15.1 WNW 23 30 1005.9 - 0.0 - - 10 - - - -
29/06:00pm 15.3 NW 22 33 1005.5 - 0.0 - Partly cloudy 10 - - - -
29/05:54pm 15.5 NW 21 31 1005.4 - 0.0 - Partly cloudy 10 - - - -
29/05:30pm 15.3 NW 19 25 1005.1 - 0.0 - - 10 - - - -
29/05:00pm 15.8 NW 21 29 1005.0 - 0.0 - - 10 - - - -
29/04:30pm 15.8 NW 20 27 1004.9 - 0.0 - - 10 - - - -
29/04:00pm 16.0 WNW 21 30 1005.0 - 0.0 - - 10 - - - -
29/03:55pm 16.1 WNW 20 30 1005.0 - 0.0 - - 10 - - - -
29/03:30pm 16.1 NW 17 23 1005.1 - 0.0 - - 10 - - - -
29/03:00pm 16.0 NW 15 21 1005.2 F 0.0 Fine Mostly cloudy 30 - - - -
29/02:30pm 16.7 NW 14 21 1005.0 - 0.0 - - 10 - - - -
29/02:00pm 16.6 NW 14 23 1005.5 - 0.0 - - 10 - - - -

Other Formats:

Comma delimited format used in spreadsheet applications
http://www.bom.gov.au/fwo/IDV60701/IDV60701.94907.axf

JavaScript Object Notation format (JSON) in row-major order
http://www.bom.gov.au/fwo/IDV60701/IDV60701.94907.json